createdAt,value
2023-01-31T00:00:50.099Z,9.418133
2023-01-31T00:01:50.097Z,9.417978
2023-01-31T00:02:50.081Z,9.418016
2023-01-31T00:03:50.118Z,9.418025
2023-01-31T00:04:50.088Z,9.418179
2023-01-31T00:05:50.069Z,9.418053
2023-01-31T00:06:50.058Z,9.418139
2023-01-31T00:07:50.061Z,9.418349
2023-01-31T00:08:50.043Z,9.418349
2023-01-31T00:09:50.024Z,9.418436
2023-01-31T00:10:50.018Z,9.418414
2023-01-31T00:11:50.023Z,9.418493
2023-01-31T00:12:50.033Z,9.418210
2023-01-31T00:13:50.003Z,9.418352
2023-01-31T00:14:50.003Z,9.418267
2023-01-31T00:15:50.031Z,9.418427
2023-01-31T00:16:49.998Z,9.418489
2023-01-31T00:17:50.043Z,9.418522
2023-01-31T00:18:49.976Z,9.418411
2023-01-31T00:19:50.013Z,9.418348
2023-01-31T00:20:49.953Z,9.418350
2023-01-31T00:21:49.961Z,9.418262
2023-01-31T00:22:49.952Z,9.418251
2023-01-31T00:23:49.931Z,9.418440
2023-01-31T00:24:49.954Z,9.418379
2023-01-31T00:25:49.929Z,9.418267
2023-01-31T00:26:49.967Z,9.418235
2023-01-31T00:27:49.998Z,9.418182
2023-01-31T00:28:49.927Z,9.418158
2023-01-31T00:29:49.928Z,9.418153
2023-01-31T00:30:49.914Z,9.418194
2023-01-31T00:31:49.950Z,9.418309
2023-01-31T00:32:49.908Z,9.418252
2023-01-31T00:33:49.924Z,9.418207
2023-01-31T00:34:49.906Z,9.418097
2023-01-31T00:35:49.868Z,9.418118
2023-01-31T00:36:49.871Z,9.418220
2023-01-31T00:37:49.849Z,9.418114
2023-01-31T00:38:49.833Z,9.418270
2023-01-31T00:39:49.869Z,9.418191
2023-01-31T00:40:49.853Z,9.418325
2023-01-31T00:41:49.851Z,9.418231
2023-01-31T00:42:50.812Z,9.418360
2023-01-31T00:43:49.808Z,9.417933
2023-01-31T00:44:49.792Z,9.418220
2023-01-31T00:45:49.811Z,9.418345
2023-01-31T00:46:49.882Z,9.418324
2023-01-31T00:47:49.786Z,9.418392
2023-01-31T00:48:49.797Z,9.418318
2023-01-31T00:49:49.765Z,9.418366
2023-01-31T00:50:50.766Z,9.418327
2023-01-31T00:51:49.774Z,9.418288
2023-01-31T00:52:49.808Z,9.418269
2023-01-31T00:53:49.745Z,9.418303
2023-01-31T00:54:49.733Z,9.418226
2023-01-31T00:55:49.733Z,9.418251
2023-01-31T00:56:49.728Z,9.418263
2023-01-31T00:57:49.724Z,9.418285
2023-01-31T00:58:49.709Z,9.418233
2023-01-31T00:59:49.703Z,9.418178
2023-01-31T01:00:49.750Z,9.418228
2023-01-31T01:01:49.730Z,9.418362
2023-01-31T01:02:49.707Z,9.418378
2023-01-31T01:03:49.671Z,9.418315
2023-01-31T01:04:49.677Z,9.418342
2023-01-31T01:05:49.668Z,9.418273
2023-01-31T01:06:49.649Z,9.418247
2023-01-31T01:07:49.668Z,9.418300
2023-01-31T01:08:49.638Z,9.418281
2023-01-31T01:09:49.637Z,9.418399
2023-01-31T01:10:49.630Z,9.418420
2023-01-31T01:11:49.626Z,9.418354
2023-01-31T01:12:49.648Z,9.418360
2023-01-31T01:13:49.618Z,9.418308
2023-01-31T01:14:49.601Z,9.418337
2023-01-31T01:15:49.599Z,9.418324
2023-01-31T01:16:49.582Z,9.418317
2023-01-31T01:17:49.591Z,9.418360
2023-01-31T01:18:49.589Z,9.418499
2023-01-31T01:19:49.566Z,9.418412
2023-01-31T01:20:49.560Z,9.418372
2023-01-31T01:21:49.558Z,9.418202
2023-01-31T01:22:49.550Z,9.418375
2023-01-31T01:23:49.541Z,9.418273
2023-01-31T01:24:49.537Z,9.418238
2023-01-31T01:25:49.525Z,9.418232
2023-01-31T01:26:49.559Z,9.418302
2023-01-31T01:27:49.515Z,9.418286
2023-01-31T01:28:49.539Z,9.418231
2023-01-31T01:29:49.510Z,9.418143
2023-01-31T01:30:49.510Z,9.418160
2023-01-31T01:31:49.627Z,9.418204
2023-01-31T01:32:49.493Z,9.418183
2023-01-31T01:33:49.506Z,9.418225
2023-01-31T01:34:49.466Z,9.418320
2023-01-31T01:35:49.462Z,9.418223
2023-01-31T01:36:49.454Z,9.418257
2023-01-31T01:37:49.445Z,9.418255
2023-01-31T01:38:49.444Z,9.418229
2023-01-31T01:39:49.455Z,9.418371
2023-01-31T01:40:49.418Z,9.418428
2023-01-31T01:41:49.409Z,9.418298
2023-01-31T01:42:49.409Z,9.418206
2023-01-31T01:43:49.403Z,9.418220
2023-01-31T01:44:49.411Z,9.418261
2023-01-31T01:45:49.415Z,9.418290
2023-01-31T01:46:49.386Z,9.418241
2023-01-31T01:47:49.367Z,9.418206
2023-01-31T01:48:49.370Z,9.418395
2023-01-31T01:49:49.379Z,9.418209
2023-01-31T01:50:49.360Z,9.418295
2023-01-31T01:51:49.359Z,9.418121
2023-01-31T01:52:49.338Z,9.418262
2023-01-31T01:53:49.406Z,9.418025
2023-01-31T01:54:49.321Z,9.418054
2023-01-31T01:55:49.344Z,9.418100
2023-01-31T01:56:49.313Z,9.418232
2023-01-31T01:57:49.313Z,9.418262
2023-01-31T01:58:49.299Z,9.418332
2023-01-31T01:59:50.295Z,9.418335
2023-01-31T02:00:49.338Z,9.418122
2023-01-31T02:01:49.312Z,9.418260
2023-01-31T02:02:49.279Z,9.418343
2023-01-31T02:03:49.278Z,9.418544
2023-01-31T02:04:49.261Z,9.418407
2023-01-31T02:05:49.294Z,9.418297
2023-01-31T02:06:51.300Z,9.418440
2023-01-31T02:07:49.269Z,9.418302
2023-01-31T02:08:49.256Z,9.418354
2023-01-31T02:09:49.251Z,9.418363
2023-01-31T02:10:49.238Z,9.418547
2023-01-31T02:11:49.242Z,9.418508
2023-01-31T02:12:49.218Z,9.418519
2023-01-31T02:13:49.213Z,9.418490
2023-01-31T02:14:49.193Z,9.418468
2023-01-31T02:15:49.189Z,9.418466
2023-01-31T02:16:49.225Z,9.418465
2023-01-31T02:17:49.185Z,9.418294
2023-01-31T02:18:49.175Z,9.418325
2023-01-31T02:19:49.170Z,9.418216
2023-01-31T02:20:49.148Z,9.418489
2023-01-31T02:21:49.157Z,9.418419
2023-01-31T02:22:49.162Z,9.418341
2023-01-31T02:23:49.133Z,9.418402
2023-01-31T02:24:49.134Z,9.418231
2023-01-31T02:25:49.122Z,9.418323
2023-01-31T02:26:49.122Z,9.418337
2023-01-31T02:27:49.111Z,9.418334
2023-01-31T02:28:49.135Z,9.418243
2023-01-31T02:29:49.096Z,9.418226
2023-01-31T02:30:49.100Z,9.418117
2023-01-31T02:31:49.124Z,9.418168
2023-01-31T02:32:49.080Z,9.418334
2023-01-31T02:33:49.098Z,9.418232
2023-01-31T02:34:49.078Z,9.418154
2023-01-31T02:35:49.054Z,9.418134
2023-01-31T02:36:49.050Z,9.418225
2023-01-31T02:37:49.057Z,9.418159
2023-01-31T02:38:49.036Z,9.418269
2023-01-31T02:39:49.082Z,9.418284
2023-01-31T02:40:49.029Z,9.418277
2023-01-31T02:41:49.019Z,9.418320
2023-01-31T02:42:49.021Z,9.418347
2023-01-31T02:43:49.011Z,9.418383
2023-01-31T02:44:49.011Z,9.418596
2023-01-31T02:45:49.041Z,9.418444
2023-01-31T02:46:49.001Z,9.418344
2023-01-31T02:47:48.977Z,9.418302
2023-01-31T02:48:48.965Z,9.418333
2023-01-31T02:49:48.970Z,9.418344
2023-01-31T02:50:48.946Z,9.418332
2023-01-31T02:51:48.950Z,9.418421
2023-01-31T02:52:48.944Z,9.418405
2023-01-31T02:53:48.958Z,9.418273
2023-01-31T02:54:48.941Z,9.418309
2023-01-31T02:55:48.918Z,9.418308
2023-01-31T02:56:48.944Z,9.418316
2023-01-31T02:57:48.908Z,9.418305
2023-01-31T02:58:48.895Z,9.418466
2023-01-31T02:59:48.915Z,9.418393
2023-01-31T03:00:48.899Z,9.418612
2023-01-31T03:01:48.915Z,9.418213
2023-01-31T03:02:48.948Z,9.418112
2023-01-31T03:03:48.870Z,9.418407
2023-01-31T03:04:48.860Z,9.418325
2023-01-31T03:05:48.866Z,9.418479
2023-01-31T03:06:48.853Z,9.418379
2023-01-31T03:07:48.984Z,9.418177
2023-01-31T03:08:48.831Z,9.418229
2023-01-31T03:09:48.831Z,9.418233
2023-01-31T03:10:48.815Z,9.418346
2023-01-31T03:11:48.813Z,9.418261
2023-01-31T03:12:48.823Z,9.418294
2023-01-31T03:13:48.836Z,9.418290
2023-01-31T03:14:48.827Z,9.418267
2023-01-31T03:15:48.802Z,9.418297
2023-01-31T03:16:48.784Z,9.418251
2023-01-31T03:17:48.778Z,9.418390
2023-01-31T03:18:48.774Z,9.418340
2023-01-31T03:19:48.773Z,9.418265
2023-01-31T03:20:48.762Z,9.418212
2023-01-31T03:21:48.750Z,9.418239
2023-01-31T03:22:48.760Z,9.418228
2023-01-31T03:23:48.750Z,9.418164
2023-01-31T03:24:48.755Z,9.418263
2023-01-31T03:25:48.730Z,9.418282
2023-01-31T03:26:48.785Z,9.418267
2023-01-31T03:27:48.716Z,9.418242
2023-01-31T03:28:48.696Z,9.418229
2023-01-31T03:29:49.698Z,9.418285
2023-01-31T03:30:48.742Z,9.418294
2023-01-31T03:31:48.792Z,9.418255
2023-01-31T03:32:48.681Z,9.418302
2023-01-31T03:33:48.693Z,9.418484
2023-01-31T03:34:48.663Z,9.418361
2023-01-31T03:35:48.659Z,9.418250
2023-01-31T03:36:48.654Z,9.418266
2023-01-31T03:37:48.642Z,9.418215
2023-01-31T03:38:48.651Z,9.418232
2023-01-31T03:39:48.623Z,9.418360
2023-01-31T03:40:48.614Z,9.418387
2023-01-31T03:41:48.610Z,9.418388
2023-01-31T03:42:48.607Z,9.418389
2023-01-31T03:43:48.641Z,9.418385
2023-01-31T03:44:48.599Z,9.418184
2023-01-31T03:45:48.640Z,9.418124
2023-01-31T03:46:48.568Z,9.418067
2023-01-31T03:47:48.572Z,9.418159
2023-01-31T03:48:48.577Z,9.418052
2023-01-31T03:49:48.564Z,9.418167
2023-01-31T03:50:48.565Z,9.418255
2023-01-31T03:51:48.569Z,9.418186
2023-01-31T03:52:48.553Z,9.418301
2023-01-31T03:53:48.587Z,9.418290
2023-01-31T03:54:48.532Z,9.418256
2023-01-31T03:55:48.539Z,9.418278
2023-01-31T03:56:48.517Z,9.418367
2023-01-31T03:57:48.514Z,9.418379
2023-01-31T03:58:48.496Z,9.418274
2023-01-31T03:59:48.513Z,9.418422
2023-01-31T04:00:48.501Z,9.418317
2023-01-31T04:01:48.647Z,9.418268
2023-01-31T04:02:48.524Z,9.418305
2023-01-31T04:03:48.488Z,9.418374
2023-01-31T04:04:48.483Z,9.418359
2023-01-31T04:05:48.454Z,9.418351
2023-01-31T04:06:48.463Z,9.418467
2023-01-31T04:07:48.449Z,9.418380
2023-01-31T04:08:48.442Z,9.418335
2023-01-31T04:09:48.448Z,9.418284
2023-01-31T04:10:48.436Z,9.418318
2023-01-31T04:11:48.424Z,9.418336
2023-01-31T04:12:48.415Z,9.418327
2023-01-31T04:13:48.423Z,9.418306
2023-01-31T04:14:48.411Z,9.418303
2023-01-31T04:15:48.446Z,9.418295
2023-01-31T04:16:48.407Z,9.418220
2023-01-31T04:17:48.396Z,9.418257
2023-01-31T04:18:48.383Z,9.418263
2023-01-31T04:19:48.395Z,9.418179
2023-01-31T04:20:48.366Z,9.418178
2023-01-31T04:21:48.370Z,9.418178
2023-01-31T04:22:48.369Z,9.418263
2023-01-31T04:23:48.345Z,9.418286
2023-01-31T04:24:48.341Z,9.418232
2023-01-31T04:25:48.360Z,9.418154
2023-01-31T04:26:48.439Z,9.418198
2023-01-31T04:27:48.336Z,9.418265
2023-01-31T04:28:48.319Z,9.418287
2023-01-31T04:29:48.294Z,9.418298
2023-01-31T04:30:48.314Z,9.418262
2023-01-31T04:31:48.409Z,9.418365
2023-01-31T04:32:48.294Z,9.418309
2023-01-31T04:33:48.311Z,9.418292
2023-01-31T04:34:48.262Z,9.418332
2023-01-31T04:35:49.256Z,9.418259
2023-01-31T04:36:48.262Z,9.418307
2023-01-31T04:37:48.267Z,9.418382
2023-01-31T04:38:48.260Z,9.418374
2023-01-31T04:39:48.240Z,9.418224
2023-01-31T04:40:48.227Z,9.418129
2023-01-31T04:41:48.223Z,9.418378
2023-01-31T04:42:48.209Z,9.418444
2023-01-31T04:43:48.209Z,9.418386
2023-01-31T04:44:48.203Z,9.418474
2023-01-31T04:45:48.189Z,9.418537
2023-01-31T04:46:48.215Z,9.418439
2023-01-31T04:47:48.180Z,9.418308
2023-01-31T04:48:48.185Z,9.418372
2023-01-31T04:49:48.176Z,9.418356
2023-01-31T04:50:48.158Z,9.418458
2023-01-31T04:51:48.170Z,9.418439
2023-01-31T04:52:48.150Z,9.418575
2023-01-31T04:53:48.149Z,9.418444
2023-01-31T04:54:48.143Z,9.418345
2023-01-31T04:55:48.132Z,9.418264
2023-01-31T04:56:48.220Z,9.418118
2023-01-31T04:57:48.181Z,9.418010
2023-01-31T04:58:48.106Z,9.418148
2023-01-31T04:59:48.097Z,9.418302
2023-01-31T05:00:48.117Z,9.418230
2023-01-31T05:01:48.105Z,9.418445
2023-01-31T05:02:48.145Z,9.418433
2023-01-31T05:03:48.075Z,9.418775
2023-01-31T05:04:48.078Z,9.418420
2023-01-31T05:05:48.057Z,9.418385
2023-01-31T05:06:49.084Z,9.418247
2023-01-31T05:07:48.100Z,9.418483
2023-01-31T05:08:48.072Z,9.418379
2023-01-31T05:09:48.037Z,9.418414
2023-01-31T05:10:48.034Z,9.418472
2023-01-31T05:11:48.028Z,9.418519
2023-01-31T05:12:48.026Z,9.418390
2023-01-31T05:13:48.021Z,9.418481
2023-01-31T05:14:48.006Z,9.418355
2023-01-31T05:15:47.995Z,9.418400
2023-01-31T05:16:47.987Z,9.418348
2023-01-31T05:17:48.030Z,9.418157
2023-01-31T05:18:47.994Z,9.418011
2023-01-31T05:19:48.001Z,9.418207
2023-01-31T05:20:47.971Z,9.418050
2023-01-31T05:21:47.960Z,9.418097
2023-01-31T05:22:47.946Z,9.418042
2023-01-31T05:23:47.957Z,9.417996
2023-01-31T05:24:47.937Z,9.417781
2023-01-31T05:25:47.926Z,9.417921
2023-01-31T05:26:48.033Z,9.418229
2023-01-31T05:27:47.927Z,9.418045
2023-01-31T05:28:47.919Z,9.418118
2023-01-31T05:29:47.891Z,9.418245
2023-01-31T05:30:47.900Z,9.418432
2023-01-31T05:31:47.921Z,9.418246
2023-01-31T05:32:47.881Z,9.418151
2023-01-31T05:33:47.890Z,9.418436
2023-01-31T05:34:47.879Z,9.418329
2023-01-31T05:35:47.854Z,9.418415
2023-01-31T05:36:47.854Z,9.418384
2023-01-31T05:37:47.837Z,9.418295
2023-01-31T05:38:47.833Z,9.418328
2023-01-31T05:39:47.862Z,9.418396
2023-01-31T05:40:47.821Z,9.418343
2023-01-31T05:41:47.828Z,9.418292
2023-01-31T05:42:47.807Z,9.418368
2023-01-31T05:43:47.806Z,9.418308
2023-01-31T05:44:47.800Z,9.418415
2023-01-31T05:45:47.827Z,9.418541
2023-01-31T05:46:47.796Z,9.418452
2023-01-31T05:47:47.769Z,9.418348
2023-01-31T05:48:47.765Z,9.418320
2023-01-31T05:49:47.753Z,9.418382
2023-01-31T05:50:47.759Z,9.418390
2023-01-31T05:51:47.758Z,9.418315
2023-01-31T05:52:47.751Z,9.418225
2023-01-31T05:53:47.758Z,9.418385
2023-01-31T05:54:47.728Z,9.418188
2023-01-31T05:55:47.741Z,9.418223
2023-01-31T05:56:47.718Z,9.418298
2023-01-31T05:57:47.723Z,9.418285
2023-01-31T05:58:47.694Z,9.418260
2023-01-31T05:59:47.715Z,9.418253
2023-01-31T06:00:47.726Z,9.418338
2023-01-31T06:01:47.711Z,9.418355
2023-01-31T06:02:47.680Z,9.418345
2023-01-31T06:03:47.669Z,9.418269
2023-01-31T06:04:47.669Z,9.418304
2023-01-31T06:05:47.678Z,9.418398
2023-01-31T06:06:47.645Z,9.418384
2023-01-31T06:07:47.647Z,9.418415
2023-01-31T06:08:47.625Z,9.418309
2023-01-31T06:09:47.733Z,9.418258
2023-01-31T06:10:47.627Z,9.418236
2023-01-31T06:11:47.633Z,9.418260
2023-01-31T06:12:47.601Z,9.418218
2023-01-31T06:13:47.591Z,9.418150
2023-01-31T06:14:47.586Z,9.418137
2023-01-31T06:15:47.598Z,9.418232
2023-01-31T06:16:47.602Z,9.418168
2023-01-31T06:17:47.566Z,9.418329
2023-01-31T06:18:47.604Z,9.418234
2023-01-31T06:19:47.557Z,9.418193
2023-01-31T06:20:47.561Z,9.418182
2023-01-31T06:21:47.541Z,9.418147
2023-01-31T06:22:47.549Z,9.418180
2023-01-31T06:23:47.533Z,9.418220
2023-01-31T06:24:47.527Z,9.418233
2023-01-31T06:25:47.522Z,9.418229
2023-01-31T06:26:47.654Z,9.418268
2023-01-31T06:27:47.525Z,9.418223
2023-01-31T06:28:47.514Z,9.418170
2023-01-31T06:29:47.491Z,9.418194
2023-01-31T06:30:47.534Z,9.418281
2023-01-31T06:31:47.493Z,9.418255
2023-01-31T06:32:47.483Z,9.418222
2023-01-31T06:33:48.211Z,9.418236
2023-01-31T06:34:48.472Z,9.418262
2023-01-31T06:35:47.449Z,9.418306
2023-01-31T06:36:47.467Z,9.418239
2023-01-31T06:37:47.449Z,9.418283
2023-01-31T06:38:47.443Z,9.418274
2023-01-31T06:39:47.442Z,9.418265
2023-01-31T06:40:47.424Z,9.418209
2023-01-31T06:41:47.417Z,9.418202
2023-01-31T06:42:47.402Z,9.418258
2023-01-31T06:43:47.399Z,9.418257
2023-01-31T06:44:47.393Z,9.418242
2023-01-31T06:45:47.422Z,9.418242
2023-01-31T06:46:47.375Z,9.418335
2023-01-31T06:47:47.375Z,9.418222
2023-01-31T06:48:47.384Z,9.418270
2023-01-31T06:49:47.356Z,9.418269
2023-01-31T06:50:47.366Z,9.418294
2023-01-31T06:51:47.367Z,9.418283
2023-01-31T06:52:47.325Z,9.418251
2023-01-31T06:53:47.332Z,9.418298
2023-01-31T06:54:47.340Z,9.418308
2023-01-31T06:55:47.315Z,9.418332
2023-01-31T06:56:47.323Z,9.418339
2023-01-31T06:57:47.308Z,9.418304
2023-01-31T06:58:47.293Z,9.418356
2023-01-31T06:59:47.289Z,9.418267
2023-01-31T07:00:47.286Z,9.418324
2023-01-31T07:01:47.352Z,9.418377
2023-01-31T07:02:47.264Z,9.418182
2023-01-31T07:03:47.266Z,9.418165
2023-01-31T07:04:47.324Z,9.418213
2023-01-31T07:05:47.265Z,9.418280
2023-01-31T07:06:47.253Z,9.418333
2023-01-31T07:07:47.251Z,9.418426
2023-01-31T07:08:47.272Z,9.418549
2023-01-31T07:09:47.242Z,9.418574
2023-01-31T07:10:47.221Z,9.418501
2023-01-31T07:11:47.217Z,9.418459
2023-01-31T07:12:47.246Z,9.418363
2023-01-31T07:13:47.201Z,9.418322
2023-01-31T07:14:47.181Z,9.418258
2023-01-31T07:15:47.213Z,9.418303
2023-01-31T07:16:47.168Z,9.418353
2023-01-31T07:17:47.198Z,9.418332
2023-01-31T07:18:47.165Z,9.418272
2023-01-31T07:19:47.165Z,9.418352
2023-01-31T07:20:47.156Z,9.418446
2023-01-31T07:21:47.181Z,9.418489
2023-01-31T07:22:47.149Z,9.418438
2023-01-31T07:23:47.143Z,9.418324
2023-01-31T07:24:47.152Z,9.418243
2023-01-31T07:25:47.170Z,9.418227
2023-01-31T07:26:47.142Z,9.418334
2023-01-31T07:27:47.101Z,9.418468
2023-01-31T07:28:47.117Z,9.418255
2023-01-31T07:29:47.116Z,9.418308
2023-01-31T07:30:47.121Z,9.418310
2023-01-31T07:31:47.112Z,9.418433
2023-01-31T07:32:47.074Z,9.418295
2023-01-31T07:33:47.079Z,9.418316
2023-01-31T07:34:47.062Z,9.418282
2023-01-31T07:35:47.045Z,9.418304
2023-01-31T07:36:47.045Z,9.418164
2023-01-31T07:37:47.036Z,9.417933
2023-01-31T07:38:47.057Z,9.418033
2023-01-31T07:39:47.041Z,9.417962
2023-01-31T07:40:47.013Z,9.418241
2023-01-31T07:41:47.006Z,9.418182
2023-01-31T07:42:47.005Z,9.418522
2023-01-31T07:43:46.994Z,9.418185
2023-01-31T07:44:46.994Z,9.418563
2023-01-31T07:45:47.055Z,9.418474
2023-01-31T07:46:46.996Z,9.418599
2023-01-31T07:47:46.994Z,9.418466
2023-01-31T07:48:46.964Z,9.418563
2023-01-31T07:49:46.961Z,9.418372
2023-01-31T07:50:46.972Z,9.418589
2023-01-31T07:51:46.937Z,9.418251
2023-01-31T07:52:46.946Z,9.418184
2023-01-31T07:53:46.952Z,9.418102
2023-01-31T07:54:46.908Z,9.418302
2023-01-31T07:55:47.665Z,9.418354
2023-01-31T07:56:47.642Z,9.418286
2023-01-31T07:57:47.297Z,9.418183
2023-01-31T07:58:47.261Z,9.418186
2023-01-31T07:59:47.257Z,9.418292
2023-01-31T08:00:47.051Z,9.418339
2023-01-31T08:01:49.571Z,9.418323
2023-01-31T08:02:46.854Z,9.418562
2023-01-31T08:03:46.850Z,9.418352
2023-01-31T08:04:46.940Z,9.418330
2023-01-31T08:05:46.861Z,9.418261
2023-01-31T08:06:46.866Z,9.418253
2023-01-31T08:07:47.066Z,9.418362
2023-01-31T08:08:47.498Z,9.418335
2023-01-31T08:09:47.326Z,9.418197
2023-01-31T08:10:47.337Z,9.418326
2023-01-31T08:11:47.236Z,9.418236
2023-01-31T08:12:49.400Z,9.418287
2023-01-31T08:13:46.805Z,9.418330
2023-01-31T08:14:46.829Z,9.418271
2023-01-31T08:15:46.781Z,9.418246
2023-01-31T08:16:46.926Z,9.418172
2023-01-31T08:17:46.780Z,9.418336
2023-01-31T08:18:46.768Z,9.418339
2023-01-31T08:19:46.760Z,9.418421
2023-01-31T08:20:46.765Z,9.418387
2023-01-31T08:21:46.731Z,9.418361
2023-01-31T08:22:47.070Z,9.418707
2023-01-31T08:23:46.957Z,9.418477
2023-01-31T08:24:46.847Z,9.418377
2023-01-31T08:25:46.719Z,9.418211
2023-01-31T08:26:46.871Z,9.418229
2023-01-31T08:27:46.702Z,9.418452
2023-01-31T08:28:46.707Z,9.418435
2023-01-31T08:29:46.692Z,9.418468
2023-01-31T08:30:56.071Z,9.418474
2023-01-31T08:31:51.094Z,9.418404
2023-01-31T08:32:46.662Z,9.418374
2023-01-31T08:33:46.994Z,9.418470
2023-01-31T08:34:46.994Z,9.418357
2023-01-31T08:35:46.755Z,9.418616
2023-01-31T08:36:46.725Z,9.418657
2023-01-31T08:37:46.642Z,9.418560
2023-01-31T08:38:46.677Z,9.418464
2023-01-31T08:39:46.627Z,9.418264
2023-01-31T08:40:46.611Z,9.418298
2023-01-31T08:41:46.616Z,9.418421
2023-01-31T08:42:46.609Z,9.418445
2023-01-31T08:43:55.910Z,9.418453
2023-01-31T08:44:48.625Z,9.418502
2023-01-31T08:45:46.891Z,9.418432
2023-01-31T08:46:46.921Z,9.418324
2023-01-31T08:47:46.706Z,9.418221
2023-01-31T08:48:46.567Z,9.418174
2023-01-31T08:49:46.715Z,9.418239
2023-01-31T08:50:46.570Z,9.418236
2023-01-31T08:51:46.547Z,9.418164
2023-01-31T08:52:46.523Z,9.418192
2023-01-31T08:53:46.537Z,9.418109
2023-01-31T08:54:46.521Z,9.418159
2023-01-31T08:55:46.518Z,9.418282
2023-01-31T08:56:46.517Z,9.418273
2023-01-31T08:57:58.892Z,9.418210
2023-01-31T08:58:48.504Z,9.418223
2023-01-31T08:59:46.495Z,9.418324
2023-01-31T09:00:46.492Z,9.418166
2023-01-31T09:01:46.548Z,9.418230
2023-01-31T09:02:46.521Z,9.418373
2023-01-31T09:03:46.464Z,9.418381
2023-01-31T09:04:46.460Z,9.418182
2023-01-31T09:05:46.461Z,9.418144
2023-01-31T09:06:46.461Z,9.418228
2023-01-31T09:07:46.448Z,9.418237
2023-01-31T09:08:46.427Z,9.418221
2023-01-31T09:09:46.428Z,9.418161
2023-01-31T09:10:46.420Z,9.418264
2023-01-31T09:11:46.416Z,9.418221
2023-01-31T09:12:46.400Z,9.418263
2023-01-31T09:13:46.403Z,9.418152
2023-01-31T09:14:46.396Z,9.418195
2023-01-31T09:15:46.368Z,9.418260
2023-01-31T09:16:46.409Z,9.418259
2023-01-31T09:17:46.403Z,9.418202
2023-01-31T09:18:46.372Z,9.418317
2023-01-31T09:19:46.357Z,9.418285
2023-01-31T09:20:46.352Z,9.418456
2023-01-31T09:21:46.383Z,9.418297
2023-01-31T09:22:46.346Z,9.418361
2023-01-31T09:23:46.323Z,9.418232
2023-01-31T09:24:46.321Z,9.418283
2023-01-31T09:25:47.999Z,9.418294
2023-01-31T09:26:47.326Z,9.418192
2023-01-31T09:27:46.307Z,9.418306
2023-01-31T09:28:46.301Z,9.418284
2023-01-31T09:29:46.288Z,9.418401
2023-01-31T09:30:46.334Z,9.418374
2023-01-31T09:31:46.397Z,9.418285
2023-01-31T09:32:46.282Z,9.418361
2023-01-31T09:33:46.266Z,9.418377
2023-01-31T09:34:46.252Z,9.418354
2023-01-31T09:35:46.267Z,9.418360
2023-01-31T09:36:46.235Z,9.418385
2023-01-31T09:37:46.267Z,9.418286
2023-01-31T09:38:46.243Z,9.418308
2023-01-31T09:39:46.211Z,9.418344
2023-01-31T09:40:46.207Z,9.418297
2023-01-31T09:41:46.191Z,9.418275
2023-01-31T09:42:46.193Z,9.418269
2023-01-31T09:43:46.196Z,9.418324
2023-01-31T09:44:46.183Z,9.418329
2023-01-31T09:45:46.170Z,9.418377
2023-01-31T09:46:46.205Z,9.418462
2023-01-31T09:47:46.155Z,9.418403
2023-01-31T09:48:46.153Z,9.418433
2023-01-31T09:49:46.141Z,9.418350
2023-01-31T09:50:46.119Z,9.418324
2023-01-31T09:51:46.149Z,9.418362
2023-01-31T09:52:46.131Z,9.418365
2023-01-31T09:53:46.152Z,9.418353
2023-01-31T09:54:46.114Z,9.418328
2023-01-31T09:55:46.118Z,9.418298
2023-01-31T09:56:46.098Z,9.418206
2023-01-31T09:57:46.087Z,9.418337
2023-01-31T09:58:46.088Z,9.418306
2023-01-31T09:59:46.087Z,9.418327
2023-01-31T10:00:46.128Z,9.418350
2023-01-31T10:01:46.067Z,9.418408
2023-01-31T10:02:46.055Z,9.418358
2023-01-31T10:03:46.079Z,9.418272
2023-01-31T10:04:47.036Z,9.418328
2023-01-31T10:05:46.036Z,9.418279
2023-01-31T10:06:46.020Z,9.418309
2023-01-31T10:07:46.017Z,9.418268
2023-01-31T10:08:46.020Z,9.418308
2023-01-31T10:09:46.007Z,9.418389
2023-01-31T10:10:46.003Z,9.418399
2023-01-31T10:11:45.993Z,9.418456
2023-01-31T10:12:45.996Z,9.418381
2023-01-31T10:13:45.976Z,9.418378
2023-01-31T10:14:45.980Z,9.418316
2023-01-31T10:15:45.962Z,9.418377
2023-01-31T10:16:45.968Z,9.418352
2023-01-31T10:17:46.101Z,9.418334
2023-01-31T10:18:45.944Z,9.418309
2023-01-31T10:19:45.945Z,9.418212
2023-01-31T10:20:45.934Z,9.418244
2023-01-31T10:21:45.947Z,9.418276
2023-01-31T10:22:45.920Z,9.418249
2023-01-31T10:23:45.907Z,9.418258
2023-01-31T10:24:45.924Z,9.418376
2023-01-31T10:25:45.894Z,9.418316
2023-01-31T10:26:45.952Z,9.418271
2023-01-31T10:27:45.888Z,9.418303
2023-01-31T10:28:45.872Z,9.418245
2023-01-31T10:29:45.912Z,9.418276
2023-01-31T10:30:45.904Z,9.418314
2023-01-31T10:31:45.871Z,9.418374
2023-01-31T10:32:45.844Z,9.418362
2023-01-31T10:33:45.836Z,9.418345
2023-01-31T10:34:45.862Z,9.418280
2023-01-31T10:35:45.824Z,9.418206
2023-01-31T10:36:45.829Z,9.418197
2023-01-31T10:37:45.846Z,9.418228
2023-01-31T10:38:45.800Z,9.418235
2023-01-31T10:39:45.809Z,9.418225
2023-01-31T10:40:45.787Z,9.418206
2023-01-31T10:41:45.786Z,9.418209
2023-01-31T10:42:45.784Z,9.418282
2023-01-31T10:43:45.759Z,9.418221
2023-01-31T10:44:45.804Z,9.418250
2023-01-31T10:45:45.851Z,9.418361
2023-01-31T10:46:45.763Z,9.418287
2023-01-31T10:47:46.440Z,9.418217
2023-01-31T10:48:47.406Z,9.418279
2023-01-31T10:49:46.738Z,9.418262
2023-01-31T10:50:46.311Z,9.418214
2023-01-31T10:51:46.319Z,9.418185
2023-01-31T10:52:48.912Z,9.418267
2023-01-31T10:53:46.700Z,9.418293
2023-01-31T10:54:46.041Z,9.418212
2023-01-31T10:55:45.712Z,9.418365
2023-01-31T10:56:45.688Z,9.418314
2023-01-31T10:57:45.664Z,9.418340
2023-01-31T10:58:45.683Z,9.418271
2023-01-31T10:59:45.667Z,9.418218
2023-01-31T11:00:45.700Z,9.418261
2023-01-31T11:01:45.679Z,9.418247
2023-01-31T11:02:45.683Z,9.418314
2023-01-31T11:03:45.628Z,9.418343
2023-01-31T11:04:45.668Z,9.418406
2023-01-31T11:05:45.634Z,9.418299
2023-01-31T11:06:45.655Z,9.418331
2023-01-31T11:07:45.608Z,9.418318
2023-01-31T11:08:45.624Z,9.418290
2023-01-31T11:09:45.587Z,9.418258
2023-01-31T11:10:45.950Z,9.418184
2023-01-31T11:11:45.596Z,9.418289
2023-01-31T11:12:45.895Z,9.418313
2023-01-31T11:13:45.556Z,9.418338
2023-01-31T11:14:45.572Z,9.418194
2023-01-31T11:15:45.543Z,9.418261
2023-01-31T11:16:45.592Z,9.418351
2023-01-31T11:17:45.671Z,9.418312
2023-01-31T11:18:45.580Z,9.418297
2023-01-31T11:19:45.515Z,9.418258
2023-01-31T11:20:45.730Z,9.418388
2023-01-31T11:21:45.528Z,9.418294
2023-01-31T11:22:45.526Z,9.418287
2023-01-31T11:23:45.737Z,9.418408
2023-01-31T11:24:45.500Z,9.418349
2023-01-31T11:25:45.492Z,9.418331
2023-01-31T11:26:45.522Z,9.418434
2023-01-31T11:27:45.488Z,9.418340
2023-01-31T11:28:45.473Z,9.418401
2023-01-31T11:29:45.468Z,9.418397
2023-01-31T11:30:45.471Z,9.418324
2023-01-31T11:31:45.646Z,9.418320
2023-01-31T11:32:45.477Z,9.418368
2023-01-31T11:33:45.432Z,9.418384
2023-01-31T11:34:45.453Z,9.418370
2023-01-31T11:35:45.435Z,9.418375
2023-01-31T11:36:45.433Z,9.418398
2023-01-31T11:37:45.406Z,9.418410
2023-01-31T11:38:45.409Z,9.418403
2023-01-31T11:39:45.438Z,9.418387
2023-01-31T11:40:46.165Z,9.418420
2023-01-31T11:41:45.372Z,9.418354
2023-01-31T11:42:45.368Z,9.418413
2023-01-31T11:43:45.388Z,9.418357
2023-01-31T11:44:45.356Z,9.418367